Time;durP1;ratioP1;P1;durP2;ratioP2;P2;SDS_P1;SDS_P2;PMS_P1;PMS_P2;Temp;Humidity;BMP_temperature;BMP_pressure;BME280_temperature;BME280_humidity;BME280_pressure;Samples;Min_cycle;Max_cycle;Signal;HPM_P1;HPM_P2
2021/12/11 00:00:31;;;;;;;10.30;2.00;;;5.60;95.10;;;;;;6250533;28;20056;-78
2021/12/11 00:03:37;;;;;;;5.47;2.22;;;5.50;95.40;;;;;;6250768;28;20195;-78
2021/12/11 00:06:42;;;;;;;3.35;1.92;;;5.50;95.50;;;;;;6250485;28;20065;-79
2021/12/11 00:09:48;;;;;;;6.72;1.27;;;5.50;95.50;;;;;;6250586;28;20550;-79
2021/12/11 00:12:58;;;;;;;7.85;2.25;;;5.50;95.20;;;;;;6250025;28;20138;-79
2021/12/11 00:16:00;;;;;;;4.50;1.55;;;5.50;95.10;;;;;;6250095;28;20048;-78
2021/12/11 00:19:06;;;;;;;4.90;1.88;;;5.50;95.00;;;;;;6249889;28;20392;-79
2021/12/11 00:22:11;;;;;;;4.85;1.98;;;5.50;95.00;;;;;;6224838;28;20038;-79
2021/12/11 00:25:14;;;;;;;2.72;1.40;;;5.50;94.90;;;;;;6224870;28;20046;-79
2021/12/11 00:28:18;;;;;;;2.67;0.95;;;5.50;95.10;;;;;;6224875;28;20056;-78
2021/12/11 00:31:21;;;;;;;3.58;1.00;;;5.50;95.10;;;;;;6226676;28;20419;-79
2021/12/11 00:34:26;;;;;;;4.80;1.42;;;5.50;95.00;;;;;;6224083;28;20109;-78
2021/12/11 00:37:28;;;;;;;1.90;0.90;;;5.50;95.00;;;;;;6224118;28;20056;-78
2021/12/11 00:40:33;;;;;;;2.83;1.23;;;5.60;95.00;;;;;;6224140;28;20046;-78
2021/12/11 00:43:40;;;;;;;2.25;1.05;;;5.60;95.20;;;;;;6225454;28;20514;-78
2021/12/11 00:46:42;;;;;;;3.33;1.50;;;5.60;94.90;;;;;;6226024;28;20072;-78
2021/12/11 00:49:51;;;;;;;3.38;1.30;;;5.60;94.80;;;;;;6251371;28;20491;-79
2021/12/11 00:52:55;;;;;;;3.70;1.30;;;5.60;95.00;;;;;;6250217;28;20128;-79
2021/12/11 00:56:02;;;;;;;1.85;1.30;;;5.60;95.10;;;;;;6250216;28;20045;-79
2021/12/11 00:59:10;;;;;;;5.88;1.42;;;5.70;95.20;;;;;;6251318;28;20400;-79
2021/12/11 01:02:13;;;;;;;2.17;1.13;;;5.80;95.10;;;;;;6250233;28;20132;-79
2021/12/11 01:05:15;;;;;;;2.22;1.10;;;5.80;95.10;;;;;;6250827;28;20041;-79
2021/12/11 01:08:25;;;;;;;3.28;1.50;;;5.80;94.90;;;;;;6250619;28;20092;-78
2021/12/11 01:11:31;;;;;;;3.97;2.17;;;5.80;94.80;;;;;;6250684;28;20045;-79
2021/12/11 01:14:40;;;;;;;4.97;1.27;;;5.80;94.70;;;;;;6250738;28;20050;-79
2021/12/11 01:17:49;;;;;;;2.55;1.55;;;5.80;94.70;;;;;;6253123;28;20115;-79
2021/12/11 01:20:59;;;;;;;3.78;1.55;;;5.80;94.80;;;;;;6254906;28;20563;-79
2021/12/11 01:24:26;;;;;;;1.67;1.02;;;5.80;94.80;;;;;;6255629;28;20041;-79
2021/12/11 01:27:29;;;;;;;3.20;1.35;;;5.80;94.70;;;;;;6253410;28;20100;-79
2021/12/11 01:30:36;;;;;;;2.70;1.27;;;5.80;94.60;;;;;;6255438;28;20049;-79
2021/12/11 01:33:39;;;;;;;4.03;1.67;;;5.80;94.70;;;;;;6254722;28;20705;-79
2021/12/11 01:36:41;;;;;;;3.70;1.65;;;5.80;94.50;;;;;;6254555;28;20052;-79
2021/12/11 01:39:43;;;;;;;2.20;1.52;;;5.80;94.60;;;;;;6255183;28;20184;-80
2021/12/11 01:42:45;;;;;;;3.35;1.48;;;5.80;94.60;;;;;;6254834;28;20053;-78
2021/12/11 01:45:51;;;;;;;2.15;1.20;;;5.80;94.50;;;;;;6253531;28;20418;-79
2021/12/11 01:48:58;;;;;;;7.72;2.17;;;5.70;94.50;;;;;;6254611;28;20423;-78
2021/12/11 01:52:08;;;;;;;4.40;1.67;;;5.70;94.40;;;;;;6254508;28;20037;-79
2021/12/11 01:55:12;;;;;;;2.70;1.77;;;5.70;94.50;;;;;;6254759;28;20152;-78
2021/12/11 01:58:21;;;;;;;3.17;1.75;;;5.70;94.30;;;;;;6254967;28;20053;-78
2021/12/11 02:01:29;;;;;;;2.97;1.73;;;5.60;94.20;;;;;;6254885;28;20045;-78
2021/12/11 02:04:34;;;;;;;;;;;5.60;94.20;;;;;;6254867;28;20052;-79
2021/12/11 02:07:46;;;;;;;3.03;1.75;;;5.60;94.10;;;;;;6254450;28;19932;-78
2021/12/11 02:10:54;;;;;;;4.57;2.10;;;5.60;94.30;;;;;;6254835;28;20049;-78
2021/12/11 02:13:59;;;;;;;4.28;2.10;;;5.60;94.40;;;;;;6253305;28;20128;-78
2021/12/11 02:17:03;;;;;;;3.15;1.67;;;5.50;93.90;;;;;;6253861;28;20838;-79
2021/12/11 02:20:10;;;;;;;4.93;2.40;;;5.50;94.10;;;;;;6246916;28;20046;-78
2021/12/11 02:23:15;;;;;;;4.18;2.38;;;5.50;94.00;;;;;;6255357;28;20053;-79
2021/12/11 02:26:18;;;;;;;3.10;2.08;;;5.50;94.10;;;;;;6254315;28;20125;-79
2021/12/11 02:29:25;;;;;;;5.90;2.75;;;5.60;94.00;;;;;;6253876;28;20507;-78
2021/12/11 02:32:32;;;;;;;5.70;3.45;;;5.60;94.00;;;;;;6254335;28;20192;-78
2021/12/11 02:35:40;;;;;;;4.15;2.85;;;5.60;93.90;;;;;;6252737;28;20057;-78
2021/12/11 02:38:46;;;;;;;;;;;5.60;93.80;;;;;;6253938;28;20651;-79
2021/12/11 02:41:53;;;;;;;5.15;3.30;;;5.60;93.80;;;;;;6253450;28;19921;-80
2021/12/11 02:45:00;;;;;;;8.77;3.20;;;5.60;93.70;;;;;;6252626;28;20566;-79
2021/12/11 02:48:06;;;;;;;9.73;3.60;;;5.70;93.60;;;;;;6249457;28;20912;-80
2021/12/11 02:51:17;;;;;;;4.97;3.25;;;5.70;93.40;;;;;;6245704;28;20130;-79
2021/12/11 02:54:24;;;;;;;5.35;2.97;;;5.60;93.50;;;;;;6253491;28;20124;-80
2021/12/11 02:57:32;;;;;;;4.68;2.92;;;5.60;93.30;;;;;;6253405;28;20172;-80
2021/12/11 03:00:39;;;;;;;4.90;2.47;;;5.50;93.40;;;;;;6253192;28;20052;-79
2021/12/11 03:03:46;;;;;;;4.47;1.90;;;5.50;93.20;;;;;;6253372;28;20072;-79
2021/12/11 03:06:50;;;;;;;5.07;2.40;;;5.40;93.50;;;;;;6253702;28;20060;-79
2021/12/11 03:09:56;;;;;;;4.95;2.60;;;5.40;93.80;;;;;;6253719;28;20052;-80
2021/12/11 03:12:58;;;;;;;4.80;2.72;;;5.40;94.00;;;;;;6253336;28;20045;-79
2021/12/11 03:16:00;;;;;;;5.68;2.67;;;5.30;94.20;;;;;;6253354;28;20064;-79
2021/12/11 03:19:04;;;;;;;5.18;2.78;;;5.40;94.20;;;;;;6253781;28;20178;-79
2021/12/11 03:22:08;;;;;;;5.05;3.17;;;5.30;94.20;;;;;;6228467;28;20046;-80
2021/12/11 03:25:14;;;;;;;6.05;3.70;;;5.30;94.00;;;;;;6227911;28;20046;-79
2021/12/11 03:28:18;;;;;;;7.53;3.70;;;5.30;94.20;;;;;;6229063;28;20419;-79
2021/12/11 03:31:20;;;;;;;6.95;3.97;;;5.20;94.20;;;;;;6228892;28;20226;-80
2021/12/11 03:34:27;;;;;;;8.10;4.20;;;5.20;94.30;;;;;;6228343;28;20056;-79
2021/12/11 03:37:29;;;;;;;8.03;4.23;;;5.20;94.40;;;;;;6228229;28;20073;-79
2021/12/11 03:40:32;;;;;;;8.50;5.30;;;5.20;94.40;;;;;;6244258;28;20176;-79
2021/12/11 03:43:35;;;;;;;13.02;5.07;;;5.20;94.30;;;;;;6253574;28;20057;-80
2021/12/11 03:46:38;;;;;;;8.38;4.25;;;5.30;94.40;;;;;;6252758;28;20052;-79
2021/12/11 03:49:41;;;;;;;9.27;4.97;;;5.20;94.30;;;;;;6249602;28;20172;-79
2021/12/11 03:52:44;;;;;;;8.75;5.78;;;5.20;94.40;;;;;;6252198;28;20124;-79
2021/12/11 03:55:49;;;;;;;9.93;6.30;;;5.20;94.40;;;;;;6251381;28;20099;-79
2021/12/11 03:58:52;;;;;;;12.07;6.10;;;5.20;94.40;;;;;;6251844;28;20124;-78
2021/12/11 04:01:56;;;;;;;10.95;5.80;;;5.20;94.50;;;;;;6251873;28;20052;-79
2021/12/11 04:05:00;;;;;;;10.07;5.93;;;5.20;94.20;;;;;;6251257;28;20053;-79
2021/12/11 04:08:05;;;;;;;9.63;6.10;;;5.20;94.30;;;;;;6272398;22;20041;-81
2021/12/11 04:11:09;;;;;;;9.30;5.95;;;5.20;94.20;;;;;;6239566;28;20054;-80
2021/12/11 04:14:15;;;;;;;10.57;6.50;;;5.20;94.40;;;;;;6239249;28;20102;-82
2021/12/11 04:17:21;;;;;;;11.55;6.60;;;5.20;94.50;;;;;;6238090;28;20096;-81
2021/12/11 04:20:28;;;;;;;11.85;6.72;;;5.30;94.50;;;;;;6245141;28;20422;-81
2021/12/11 04:23:30;;;;;;;12.43;7.82;;;5.30;94.40;;;;;;6263385;28;20053;-80
2021/12/11 04:26:34;;;;;;;11.95;5.53;;;5.30;94.30;;;;;;6263574;28;20069;-80
2021/12/11 04:29:36;;;;;;;15.13;7.38;;;5.30;94.20;;;;;;6263075;28;20052;-80
2021/12/11 04:32:39;;;;;;;12.55;7.10;;;5.40;94.40;;;;;;6264700;28;20113;-80
2021/12/11 04:35:42;;;;;;;13.07;6.90;;;5.40;94.20;;;;;;6263191;28;20506;-80
2021/12/11 04:38:46;;;;;;;19.08;8.38;;;5.40;94.20;;;;;;6263961;28;20049;-80
2021/12/11 04:41:56;;;;;;;14.70;7.63;;;5.40;94.10;;;;;;6263982;28;20124;-81
2021/12/11 04:44:59;;;;;;;11.45;6.50;;;5.40;94.10;;;;;;6268253;28;20056;-83
2021/12/11 04:48:09;;;;;;;13.05;6.85;;;5.40;94.10;;;;;;6272607;28;20105;-80
2021/12/11 04:51:18;;;;;;;16.75;7.10;;;5.30;94.00;;;;;;6280583;28;20056;-81
2021/12/11 04:54:36;;;;;;;12.50;6.80;;;5.30;93.90;;;;;;6280648;28;20112;-80
2021/12/11 04:58:00;;;;;;;14.80;7.05;;;5.30;93.90;;;;;;6279193;28;20045;-82
2021/12/11 05:01:13;;;;;;;13.27;7.45;;;5.30;94.00;;;;;;6279401;28;20047;-82
2021/12/11 05:07:40;;;;;;;11.50;7.10;;;5.30;94.20;;;;;;6273401;28;20073;-82
2021/12/11 05:10:53;;;;;;;15.73;8.20;;;5.20;93.80;;;;;;6278101;28;20049;-81
2021/12/11 05:13:56;;;;;;;14.68;7.15;;;5.30;94.00;;;;;;6277947;28;20045;-81
2021/12/11 05:16:58;;;;;;;14.98;8.27;;;5.30;93.90;;;;;;6274129;28;20061;-82
2021/12/11 05:20:00;;;;;;;11.85;6.25;;;5.20;93.70;;;;;;6276017;28;20061;-81
2021/12/11 05:23:02;;;;;;;16.98;7.45;;;5.20;93.80;;;;;;6276415;28;20033;-82
2021/12/11 05:26:04;;;;;;;14.95;7.55;;;5.20;93.80;;;;;;6275108;28;20076;-82
2021/12/11 05:29:08;;;;;;;14.43;7.85;;;5.30;93.80;;;;;;6274318;28;20065;-80
2021/12/11 05:32:12;;;;;;;13.93;7.40;;;5.30;93.60;;;;;;6273944;28;20418;-80
2021/12/11 05:35:15;;;;;;;15.48;8.05;;;5.30;93.60;;;;;;6273739;28;20068;-81
2021/12/11 05:38:19;;;;;;;14.68;7.40;;;5.30;93.50;;;;;;6273360;28;20052;-81
2021/12/11 05:41:24;;;;;;;15.90;8.65;;;5.30;93.40;;;;;;6273444;28;20041;-80
2021/12/11 05:44:27;;;;;;;12.75;6.88;;;5.30;93.30;;;;;;6274562;28;20056;-80
2021/12/11 05:47:29;;;;;;;15.77;8.10;;;5.30;93.50;;;;;;6273782;28;20109;-82
2021/12/11 05:50:35;;;;;;;16.63;8.00;;;5.30;93.50;;;;;;6271454;28;20537;-81
2021/12/11 05:53:37;;;;;;;13.25;7.00;;;5.30;93.20;;;;;;6271389;28;20052;-80
2021/12/11 05:56:41;;;;;;;13.40;7.18;;;5.30;93.30;;;;;;6270281;28;20072;-80
2021/12/11 05:59:46;;;;;;;16.83;7.65;;;5.40;93.40;;;;;;6271867;28;20061;-81
2021/12/11 06:02:47;;;;;;;14.30;6.70;;;5.40;93.30;;;;;;6268892;28;20056;-81
2021/12/11 06:05:49;;;;;;;13.00;7.35;;;5.50;93.60;;;;;;6273751;28;20101;-81
2021/12/11 06:08:51;;;;;;;15.93;8.05;;;5.50;93.50;;;;;;6280642;28;20077;-80
2021/12/11 06:11:57;;;;;;;14.85;8.25;;;5.50;93.30;;;;;;6280956;28;20029;-80
2021/12/11 06:15:00;;;;;;;15.65;7.93;;;5.50;93.20;;;;;;6280665;28;20041;-80
2021/12/11 06:18:03;;;;;;;17.75;8.15;;;5.50;93.10;;;;;;6280691;28;20060;-79
2021/12/11 06:21:05;;;;;;;18.02;8.77;;;5.50;93.20;;;;;;6280770;28;20094;-81
2021/12/11 06:24:07;;;;;;;16.17;8.57;;;5.60;93.20;;;;;;6280712;28;20056;-79
2021/12/11 06:27:09;;;;;;;15.98;8.95;;;5.60;93.10;;;;;;6280599;28;20057;-81
2021/12/11 06:30:14;;;;;;;23.05;10.23;;;5.60;93.20;;;;;;6280696;28;20045;-79
2021/12/11 06:33:16;;;;;;;16.58;8.50;;;5.60;93.00;;;;;;6279829;28;20071;-79
2021/12/11 06:36:20;;;;;;;15.82;8.25;;;5.60;92.90;;;;;;6280218;28;20033;-78
2021/12/11 06:39:24;;;;;;;16.15;8.68;;;5.60;92.80;;;;;;6279187;28;20076;-80
2021/12/11 06:42:26;;;;;;;14.23;7.38;;;5.60;93.30;;;;;;6276005;28;20055;-79
2021/12/11 06:45:30;;;;;;;19.42;8.23;;;5.60;93.10;;;;;;6275906;28;20053;-82
2021/12/11 06:48:36;;;;;;;21.13;9.27;;;5.60;93.00;;;;;;6274624;28;20050;-80
2021/12/11 06:51:39;;;;;;;14.07;7.97;;;5.60;92.80;;;;;;6278406;28;20053;-79
2021/12/11 06:54:41;;;;;;;18.30;9.63;;;5.70;93.00;;;;;;6274060;28;20057;-81
2021/12/11 06:57:44;;;;;;;15.55;8.60;;;5.70;92.90;;;;;;6274377;28;20049;-80
2021/12/11 07:00:47;;;;;;;15.02;8.32;;;5.60;92.70;;;;;;6274333;28;20076;-78
2021/12/11 07:03:49;;;;;;;14.85;8.13;;;5.60;92.70;;;;;;6274278;28;20085;-81
2021/12/11 07:06:54;;;;;;;14.18;7.95;;;5.60;93.00;;;;;;6274238;28;20052;-79
2021/12/11 07:09:56;;;;;;;17.33;8.43;;;5.60;92.70;;;;;;6273094;28;20045;-79
2021/12/11 07:12:58;;;;;;;16.85;8.75;;;5.60;92.70;;;;;;6272501;28;20076;-81
2021/12/11 07:16:02;;;;;;;14.10;7.95;;;5.60;92.70;;;;;;6271368;28;20045;-80
2021/12/11 07:19:05;;;;;;;16.20;8.65;;;5.60;92.50;;;;;;6272615;28;20084;-80
2021/12/11 07:22:08;;;;;;;15.65;8.75;;;5.60;92.70;;;;;;6272783;28;20105;-81
2021/12/11 07:25:16;;;;;;;12.70;7.28;;;5.60;92.60;;;;;;6277361;28;20036;-79
2021/12/11 07:28:17;;;;;;;17.77;9.02;;;5.60;92.50;;;;;;6274944;28;20045;-81
2021/12/11 07:31:22;;;;;;;17.38;8.43;;;5.50;92.60;;;;;;6270473;28;20055;-80
2021/12/11 07:34:24;;;;;;;12.73;7.75;;;5.50;92.90;;;;;;6265025;28;20061;-79
2021/12/11 07:37:26;;;;;;;16.10;7.63;;;5.50;92.60;;;;;;6261923;28;20045;-81
2021/12/11 07:40:33;;;;;;;17.58;8.52;;;5.50;92.80;;;;;;6260641;28;20105;-79
2021/12/11 07:43:36;;;;;;;15.63;8.27;;;5.50;92.50;;;;;;6262957;28;20041;-79
2021/12/11 07:46:40;;;;;;;17.48;8.40;;;5.50;92.60;;;;;;6263199;28;20384;-82
2021/12/11 07:49:43;;;;;;;14.60;8.75;;;5.50;92.50;;;;;;6263787;28;20045;-80
2021/12/11 07:52:46;;;;;;;11.75;6.95;;;5.40;92.50;;;;;;6266443;28;20051;-80
2021/12/11 07:55:48;;;;;;;16.30;9.25;;;5.40;92.60;;;;;;6262542;28;20052;-80
2021/12/11 07:58:52;;;;;;;16.92;8.10;;;5.50;93.00;;;;;;6263834;28;20073;-79
2021/12/11 08:01:56;;;;;;;14.10;8.05;;;5.50;92.70;;;;;;6261587;28;20041;-79
2021/12/11 08:04:57;;;;;;;23.50;9.63;;;5.60;92.70;;;;;;6262043;28;20045;-81
2021/12/11 08:08:02;;;;;;;20.58;9.02;;;5.60;92.70;;;;;;6263179;28;20049;-81
2021/12/11 08:11:11;;;;;;;16.80;9.30;;;5.60;92.40;;;;;;6263642;28;20053;-79
2021/12/11 08:14:13;;;;;;;14.45;7.50;;;5.50;92.50;;;;;;6265105;28;20514;-80
2021/12/11 08:17:17;;;;;;;15.40;8.98;;;5.50;92.60;;;;;;6262405;28;20129;-82
2021/12/11 08:20:19;;;;;;;18.20;9.25;;;5.60;92.60;;;;;;6265815;28;20045;-80
2021/12/11 08:23:21;;;;;;;12.90;8.13;;;5.60;92.80;;;;;;6265892;28;20517;-81
2021/12/11 08:26:24;;;;;;;14.82;8.07;;;5.70;92.60;;;;;;6244770;28;20057;-79
2021/12/11 08:29:27;;;;;;;19.25;10.70;;;5.70;92.50;;;;;;6252286;28;20030;-79
2021/12/11 08:32:30;;;;;;;13.15;7.70;;;5.80;92.60;;;;;;6249823;28;20054;-80
2021/12/11 08:35:32;;;;;;;15.48;8.40;;;5.80;92.40;;;;;;6246513;28;20053;-81
2021/12/11 08:38:34;;;;;;;18.85;8.23;;;5.90;92.30;;;;;;6246153;28;20491;-81
2021/12/11 08:41:37;;;;;;;15.23;8.65;;;5.90;92.10;;;;;;6246436;28;20053;-81
2021/12/11 08:44:48;;;;;;;20.42;10.38;;;6.00;92.20;;;;;;6244056;28;20110;-80
2021/12/11 08:47:56;;;;;;;21.50;11.45;;;6.00;91.80;;;;;;6247785;28;20045;-82
2021/12/11 08:51:02;;;;;;;20.92;11.35;;;6.10;92.20;;;;;;6268326;28;20105;-81
2021/12/11 08:54:04;;;;;;;20.38;10.98;;;6.20;92.10;;;;;;6266146;28;20049;-79
2021/12/11 08:57:08;;;;;;;19.17;10.65;;;6.30;92.20;;;;;;6242680;28;20081;-80
2021/12/11 09:00:18;;;;;;;16.40;8.90;;;6.40;92.10;;;;;;6251328;28;20092;-78
2021/12/11 09:03:34;;;;;;;17.35;9.45;;;6.40;91.70;;;;;;6268095;28;20105;-80
2021/12/11 09:06:39;;;;;;;16.65;9.07;;;6.50;91.40;;;;;;6263884;28;20101;-81
2021/12/11 09:09:44;;;;;;;14.55;8.05;;;6.50;90.90;;;;;;6266307;28;20075;-79
2021/12/11 09:12:49;;;;;;;13.73;8.10;;;6.50;91.30;;;;;;6265310;28;20081;-78
2021/12/11 09:15:56;;;;;;;14.05;7.75;;;6.50;91.60;;;;;;6265414;28;20163;-79
2021/12/11 09:19:05;;;;;;;15.55;8.27;;;6.60;90.70;;;;;;6265789;28;20109;-78
2021/12/11 09:22:12;;;;;;;12.48;8.35;;;6.70;91.10;;;;;;6242116;28;20050;-80
2021/12/11 09:25:17;;;;;;;21.02;8.45;;;6.80;91.00;;;;;;6245690;28;20455;-80
2021/12/11 09:28:22;;;;;;;12.15;7.07;;;6.90;90.50;;;;;;6244412;28;20054;-79
2021/12/11 09:31:29;;;;;;;12.70;7.72;;;6.90;90.50;;;;;;6241103;28;20077;-79
2021/12/11 09:34:37;;;;;;;10.07;6.40;;;6.80;90.20;;;;;;6253449;28;20050;-80
2021/12/11 09:37:41;;;;;;;15.75;7.97;;;6.80;90.50;;;;;;6270689;28;20060;-79
2021/12/11 09:40:55;;;;;;;12.80;7.45;;;6.80;90.30;;;;;;6273465;28;20053;-79
2021/12/11 09:44:01;;;;;;;15.25;9.10;;;6.90;90.20;;;;;;6268970;28;20045;-81
2021/12/11 09:47:06;;;;;;;16.67;9.27;;;6.90;90.00;;;;;;6270688;28;20469;-79
2021/12/11 09:50:12;;;;;;;18.77;10.30;;;6.90;90.00;;;;;;6265620;28;20075;-79
2021/12/11 09:53:16;;;;;;;20.17;12.02;;;6.90;90.30;;;;;;6271984;28;20108;-79
2021/12/11 09:56:24;;;;;;;17.33;8.80;;;7.00;90.10;;;;;;6269788;28;20053;-78
2021/12/11 09:59:32;;;;;;;16.02;9.13;;;7.00;90.10;;;;;;6268786;28;20069;-80
2021/12/11 10:02:35;;;;;;;13.13;7.85;;;7.00;89.60;;;;;;6273754;28;20080;-79
2021/12/11 10:05:43;;;;;;;13.30;8.45;;;7.00;89.70;;;;;;6272103;28;20072;-78
2021/12/11 10:08:56;;;;;;;16.98;9.98;;;7.10;90.30;;;;;;6292739;23;20042;-81
2021/12/11 10:12:06;;;;;;;15.57;8.35;;;7.30;90.50;;;;;;6223573;28;20050;-80
2021/12/11 10:15:16;;;;;;;19.88;12.13;;;7.40;90.20;;;;;;6204534;28;20057;-80
2021/12/11 10:18:21;;;;;;;17.55;9.13;;;7.70;89.60;;;;;;6203826;28;20054;-79
2021/12/11 10:21:26;;;;;;;17.35;10.55;;;8.00;89.10;;;;;;6204112;28;20055;-80
2021/12/11 10:24:32;;;;;;;16.35;8.43;;;8.40;88.10;;;;;;6203470;28;20500;-81
2021/12/11 10:27:34;;;;;;;11.13;7.22;;;8.90;86.80;;;;;;6203582;28;20054;-80
2021/12/11 10:30:41;;;;;;;13.05;8.55;;;9.40;85.60;;;;;;6203902;28;20050;-80
2021/12/11 10:33:43;;;;;;;15.18;7.05;;;9.80;82.50;;;;;;6204034;28;20042;-81
2021/12/11 10:36:50;;;;;;;12.02;6.82;;;10.10;82.10;;;;;;6201163;28;20050;-80
2021/12/11 10:39:54;;;;;;;12.85;6.50;;;10.40;81.40;;;;;;6201077;28;20120;-80
2021/12/11 10:43:00;;;;;;;9.73;5.65;;;10.70;79.40;;;;;;6202680;28;20054;-81
2021/12/11 10:46:07;;;;;;;11.50;6.63;;;10.90;77.00;;;;;;6202393;28;20053;-81
2021/12/11 10:49:12;;;;;;;11.25;5.50;;;11.10;72.20;;;;;;6204765;28;20080;-80
2021/12/11 10:52:19;;;;;;;7.55;4.20;;;11.30;71.50;;;;;;6203075;28;20081;-81
2021/12/11 10:55:23;;;;;;;;;;;11.60;72.50;;;;;;6204703;28;20050;-81
2021/12/11 10:58:27;;;;;;;9.57;3.90;;;11.80;71.90;;;;;;6203956;28;19966;-80
2021/12/11 11:01:35;;;;;;;5.85;3.47;;;12.20;69.10;;;;;;6202745;28;20549;-79
2021/12/11 11:04:43;;;;;;;13.07;4.38;;;12.50;68.60;;;;;;6202292;28;20125;-82
2021/12/11 11:07:49;;;;;;;8.18;4.60;;;12.90;64.60;;;;;;6202915;28;20149;-80
2021/12/11 11:10:58;;;;;;;6.47;3.28;;;13.10;62.80;;;;;;6203217;28;20096;-81
2021/12/11 11:14:01;;;;;;;4.90;3.10;;;13.30;60.30;;;;;;6202396;28;20097;-79
2021/12/11 11:17:09;;;;;;;4.72;2.80;;;13.60;62.30;;;;;;6202358;28;20069;-81
2021/12/11 11:20:17;;;;;;;10.52;3.55;;;13.90;59.80;;;;;;6194891;28;20073;-82
2021/12/11 11:23:22;;;;;;;7.53;4.22;;;13.80;62.40;;;;;;6203147;28;20050;-81
2021/12/11 11:26:28;;;;;;;7.18;4.00;;;13.60;61.90;;;;;;6200565;28;20073;-81
2021/12/11 11:29:31;;;;;;;6.72;4.22;;;13.40;62.60;;;;;;6202033;28;20074;-80
2021/12/11 11:32:35;;;;;;;9.93;4.53;;;13.40;62.70;;;;;;6201376;28;20049;-81
2021/12/11 11:35:42;;;;;;;6.65;3.88;;;13.50;62.40;;;;;;6207802;28;20141;-80
2021/12/11 11:38:51;;;;;;;6.30;4.15;;;13.70;61.90;;;;;;6202770;28;20046;-81
2021/12/11 11:41:57;;;;;;;4.97;3.17;;;13.80;61.90;;;;;;6200198;28;20053;-83
2021/12/11 11:45:02;;;;;;;6.40;4.00;;;13.80;60.50;;;;;;6201298;28;20054;-81
2021/12/11 11:48:05;;;;;;;5.97;2.80;;;13.90;60.60;;;;;;6202071;28;20125;-80
2021/12/11 11:51:11;;;;;;;5.90;3.60;;;14.00;59.40;;;;;;6203732;28;20059;-80
2021/12/11 11:54:16;;;;;;;5.82;3.65;;;14.10;59.90;;;;;;6201695;28;20046;-81
2021/12/11 11:57:21;;;;;;;5.60;3.58;;;14.20;60.50;;;;;;6201347;28;20060;-80
2021/12/11 12:00:29;;;;;;;8.63;3.78;;;14.20;59.70;;;;;;6201796;28;20133;-81
2021/12/11 12:03:33;;;;;;;6.45;4.65;;;14.20;60.70;;;;;;6202242;28;20133;-82
2021/12/11 12:06:36;;;;;;;6.13;4.10;;;14.20;59.20;;;;;;6202609;28;20050;-81
2021/12/11 12:09:41;;;;;;;9.90;5.63;;;14.30;57.00;;;;;;6202045;28;20134;-81
2021/12/11 12:12:44;;;;;;;10.45;5.32;;;14.30;55.60;;;;;;6201860;28;20042;-81
2021/12/11 12:15:51;;;;;;;13.60;6.40;;;14.20;54.30;;;;;;6200937;28;20042;-80
2021/12/11 12:18:54;;;;;;;9.00;4.38;;;14.00;54.70;;;;;;6201187;28;20060;-81
2021/12/11 12:22:00;;;;;;;13.85;5.95;;;13.70;55.50;;;;;;6161690;28;20061;-82
2021/12/11 12:25:05;;;;;;;10.25;4.72;;;13.40;56.50;;;;;;6204301;28;20049;-80
2021/12/11 12:28:07;;;;;;;4.88;2.90;;;13.30;55.90;;;;;;6200341;28;20061;-82
2021/12/11 12:31:13;;;;;;;8.65;4.82;;;13.60;58.30;;;;;;6201123;28;20069;-80
2021/12/11 12:34:19;;;;;;;6.85;4.03;;;13.80;55.00;;;;;;6199651;28;20739;-82
2021/12/11 12:37:22;;;;;;;8.63;3.47;;;13.80;53.70;;;;;;6199986;28;20046;-82
2021/12/11 12:40:28;;;;;;;9.18;5.60;;;13.70;53.80;;;;;;6199441;28;20126;-82
2021/12/11 12:47:01;;;;;;;10.32;4.03;;;12.90;55.90;;;;;;6201587;28;20456;-80
2021/12/11 12:50:08;;;;;;;3.70;2.55;;;12.70;58.00;;;;;;6200084;28;20068;-80
2021/12/11 12:53:11;;;;;;;5.80;2.80;;;12.70;59.20;;;;;;6200468;28;20042;-82
2021/12/11 12:56:20;;;;;;;6.00;3.22;;;12.70;59.30;;;;;;6199599;28;20590;-80
2021/12/11 12:59:27;;;;;;;8.60;3.92;;;12.50;60.10;;;;;;6200948;28;20133;-82
2021/12/11 13:02:31;;;;;;;5.10;3.10;;;12.50;58.80;;;;;;6200868;28;20058;-82
2021/12/11 13:05:38;;;;;;;6.70;2.92;;;12.40;58.60;;;;;;6201065;28;20057;-80
2021/12/11 13:08:44;;;;;;;6.55;3.72;;;12.30;61.20;;;;;;6200381;28;20110;-81
2021/12/11 13:11:51;;;;;;;3.70;2.92;;;12.30;60.10;;;;;;6201579;28;20042;-81
2021/12/11 13:14:56;;;;;;;4.72;2.55;;;12.10;60.30;;;;;;6205012;28;20061;-82
2021/12/11 13:18:00;;;;;;;6.00;3.17;;;11.80;60.90;;;;;;6203896;28;20064;-81
2021/12/11 13:21:09;;;;;;;6.38;4.00;;;11.40;60.90;;;;;;6205424;28;20070;-81
2021/12/11 13:24:13;;;;;;;19.23;13.60;;;11.10;62.40;;;;;;6204158;28;20173;-80
2021/12/11 13:27:16;;;;;;;7.15;4.15;;;11.00;64.50;;;;;;6204708;28;20055;-80
2021/12/11 13:30:21;;;;;;;6.20;3.58;;;11.10;66.60;;;;;;6204349;28;20512;-81
2021/12/11 13:33:27;;;;;;;7.45;5.20;;;11.20;64.10;;;;;;6204273;28;20052;-82
2021/12/11 13:36:30;;;;;;;9.40;6.35;;;11.30;63.30;;;;;;6204731;28;20043;-83
2021/12/11 13:39:35;;;;;;;6.03;3.72;;;11.20;61.60;;;;;;6204821;28;20054;-83
2021/12/11 13:42:38;;;;;;;32.45;23.60;;;11.00;62.60;;;;;;6204871;28;20047;-83
2021/12/11 13:45:44;;;;;;;14.35;8.60;;;10.80;63.00;;;;;;6204747;28;20050;-81
2021/12/11 13:48:46;;;;;;;18.58;12.15;;;10.60;63.70;;;;;;6205279;28;20086;-82
2021/12/11 13:51:49;;;;;;;10.45;6.28;;;10.40;63.60;;;;;;6205092;28;20058;-80
2021/12/11 13:54:54;;;;;;;36.55;14.50;;;10.20;64.60;;;;;;6205475;28;20050;-82
2021/12/11 13:57:57;;;;;;;82.75;41.13;;;10.00;66.60;;;;;;6205189;28;20651;-81
2021/12/11 14:01:03;;;;;;;17.33;10.70;;;9.80;66.60;;;;;;6205046;28;20046;-82
2021/12/11 14:04:06;;;;;;;16.00;9.48;;;9.70;68.50;;;;;;6207116;28;20046;-82
2021/12/11 14:07:12;;;;;;;56.38;31.58;;;9.60;68.80;;;;;;6204528;28;20132;-81
2021/12/11 14:10:21;;;;;;;17.50;11.98;;;9.60;68.20;;;;;;6204284;28;20054;-80
2021/12/11 14:13:36;;;;;;;35.85;26.98;;;9.40;68.70;;;;;;6205174;28;20049;-82
2021/12/11 14:17:09;;;;;;;9.98;6.07;;;9.00;69.00;;;;;;6180709;28;20109;-81
2021/12/11 14:35:58;;;;;;;11.70;6.82;;;8.00;76.10;;;;;;6145540;28;20046;-82
2021/12/11 14:39:04;;;;;;;11.88;5.95;;;7.90;76.80;;;;;;6176603;28;20137;-81
2021/12/11 14:42:07;;;;;;;13.75;7.70;;;7.70;77.20;;;;;;6177239;28;20046;-80
2021/12/11 14:45:12;;;;;;;8.48;5.10;;;7.80;78.60;;;;;;6175654;28;20137;-79
2021/12/11 14:48:16;;;;;;;15.23;6.70;;;7.70;78.70;;;;;;6179639;28;20107;-80
2021/12/11 14:54:38;;;;;;;10.90;4.55;;;7.80;78.90;;;;;;6202645;28;20058;-81
2021/12/11 14:57:40;;;;;;;8.32;4.63;;;7.80;79.00;;;;;;6203250;28;20137;-81
2021/12/11 15:00:52;;;;;;;7.45;5.05;;;7.70;79.10;;;;;;6207160;28;20471;-81
2021/12/11 15:07:23;;;;;;;8.32;4.75;;;7.70;81.00;;;;;;6202478;28;20054;-80
2021/12/11 15:10:29;;;;;;;10.40;5.75;;;7.80;80.50;;;;;;6202612;28;20494;-80
2021/12/11 15:13:30;;;;;;;14.75;6.32;;;7.70;80.60;;;;;;6203010;28;20050;-79
2021/12/11 15:16:34;;;;;;;10.52;5.53;;;7.70;81.20;;;;;;6202067;28;20110;-79
2021/12/11 15:19:38;;;;;;;10.43;5.85;;;7.70;81.70;;;;;;6198089;28;20050;-79
2021/12/11 15:22:41;;;;;;;9.40;5.00;;;7.70;81.70;;;;;;6202296;28;20531;-79
2021/12/11 15:25:43;;;;;;;8.98;4.93;;;7.70;82.30;;;;;;6201945;28;20046;-80
2021/12/11 15:28:59;;;;;;;9.95;5.95;;;7.70;82.20;;;;;;6202524;28;20058;-81
2021/12/11 15:32:03;;;;;;;14.32;6.70;;;7.60;81.80;;;;;;6196535;28;20494;-82
2021/12/11 15:35:12;;;;;;;10.88;6.25;;;7.60;82.50;;;;;;6200268;28;20046;-81
2021/12/11 15:38:17;;;;;;;10.65;6.30;;;7.60;82.80;;;;;;6201745;28;20105;-81
2021/12/11 15:41:20;;;;;;;8.40;4.50;;;7.60;83.30;;;;;;6201197;28;20508;-81
2021/12/11 15:44:28;;;;;;;10.80;6.18;;;7.50;82.20;;;;;;6200403;28;20046;-84
2021/12/11 15:47:35;;;;;;;13.90;5.53;;;7.50;83.00;;;;;;6187081;28;20054;-80
2021/12/11 15:50:51;;;;;;;9.75;5.45;;;7.50;82.70;;;;;;6215053;28;20333;-82
2021/12/11 15:53:54;;;;;;;13.73;6.60;;;7.40;83.10;;;;;;6194448;28;20423;-81
2021/12/11 15:56:56;;;;;;;11.82;5.93;;;7.40;83.10;;;;;;6198818;28;20450;-82
2021/12/11 15:59:59;;;;;;;12.40;6.20;;;7.30;83.50;;;;;;6201007;28;20054;-82
2021/12/11 16:03:02;;;;;;;12.15;6.80;;;7.30;83.10;;;;;;6201895;28;20113;-82
2021/12/11 16:06:06;;;;;;;14.60;7.30;;;7.30;83.40;;;;;;6202740;28;20077;-81
2021/12/11 16:09:10;;;;;;;11.48;5.70;;;7.20;83.40;;;;;;6217704;22;20054;-80
2021/12/11 16:12:15;;;;;;;11.48;6.47;;;7.10;83.30;;;;;;6220675;28;20153;-81
2021/12/11 16:15:24;;;;;;;15.35;7.07;;;7.00;83.60;;;;;;6216152;28;20102;-80
2021/12/11 16:18:26;;;;;;;10.20;5.57;;;7.00;84.10;;;;;;6222723;28;20073;-79
2021/12/11 16:21:33;;;;;;;12.68;6.43;;;6.90;83.70;;;;;;6221731;28;20051;-79
2021/12/11 16:24:37;;;;;;;14.40;8.13;;;7.00;85.10;;;;;;6222361;28;20049;-79
2021/12/11 16:27:39;;;;;;;13.73;8.18;;;7.00;85.20;;;;;;6221670;28;20088;-80
2021/12/11 16:30:45;;;;;;;14.13;7.15;;;7.00;84.90;;;;;;6221855;28;20441;-80
2021/12/11 16:33:47;;;;;;;11.50;6.35;;;7.10;85.10;;;;;;6220655;28;20053;-78